createdAt,value
2022-12-05T00:00:26.003Z,10.55
2022-12-05T00:05:27.741Z,8.95
2022-12-05T00:10:29.482Z,10.52
2022-12-05T00:15:31.372Z,9.43
2022-12-05T00:20:33.446Z,9.52
2022-12-05T00:25:36.671Z,10.15
2022-12-05T00:30:40.561Z,8.97
2022-12-05T00:35:42.461Z,10.55
2022-12-05T00:40:44.169Z,9.73
2022-12-05T00:45:45.914Z,8.48
2022-12-05T00:50:47.621Z,8.65
2022-12-05T00:55:49.383Z,8.85
2022-12-05T01:00:51.188Z,9.88
2022-12-05T01:05:52.936Z,8.77
2022-12-05T01:10:55.891Z,9.00
2022-12-05T01:15:58.159Z,9.13
2022-12-05T01:21:00.021Z,8.75
2022-12-05T01:26:06.575Z,9.57
2022-12-05T01:31:16.642Z,8.90
2022-12-05T01:36:18.821Z,10.98
2022-12-05T01:41:30.804Z,11.50
2022-12-05T01:46:35.733Z,9.90
2022-12-05T01:51:40.080Z,12.10
2022-12-05T01:56:45.954Z,10.80
2022-12-05T02:01:47.866Z,9.27
2022-12-05T02:06:49.660Z,11.25
2022-12-05T02:11:55.535Z,11.55
2022-12-05T02:17:22.166Z,11.48
2022-12-05T02:23:12.175Z,11.55
2022-12-05T02:28:32.536Z,14.43
2022-12-05T02:33:48.830Z,9.60
2022-12-05T02:38:56.410Z,9.80
2022-12-05T02:44:06.234Z,10.80
2022-12-05T02:49:11.443Z,11.73
2022-12-05T02:54:24.387Z,9.77
2022-12-05T02:59:26.247Z,10.48
2022-12-05T03:04:29.706Z,9.07
2022-12-05T03:09:36.219Z,9.20
2022-12-05T03:14:44.425Z,8.50
2022-12-05T03:20:04.824Z,8.43
2022-12-05T03:25:08.353Z,9.23
2022-12-05T03:30:13.707Z,8.35
2022-12-05T03:35:20.953Z,8.63
2022-12-05T03:40:41.265Z,10.83
2022-12-05T03:45:58.373Z,9.37
2022-12-05T03:51:01.827Z,10.00
2022-12-05T03:56:14.497Z,9.07
2022-12-05T04:01:19.534Z,8.70
2022-12-05T04:06:34.073Z,8.93
2022-12-05T04:11:43.274Z,11.17
2022-12-05T04:17:04.708Z,9.30
2022-12-05T04:22:07.243Z,9.20
2022-12-05T04:27:13.083Z,7.95
2022-12-05T04:32:14.807Z,8.55
2022-12-05T04:37:20.389Z,7.73
2022-12-05T04:42:26.310Z,8.60
2022-12-05T04:47:37.095Z,8.53
2022-12-05T04:52:40.991Z,8.35
2022-12-05T04:57:59.841Z,7.73
2022-12-05T05:03:10.271Z,10.50
2022-12-05T05:08:20.755Z,9.38
2022-12-05T05:13:22.559Z,9.85
2022-12-05T05:18:24.254Z,7.38
2022-12-05T05:23:26.301Z,8.13
2022-12-05T05:28:28.062Z,9.70
2022-12-05T05:33:29.755Z,8.82
2022-12-05T05:38:31.641Z,7.87
2022-12-05T05:43:33.520Z,6.65
2022-12-05T05:48:35.453Z,7.47
2022-12-05T05:53:37.704Z,7.28
2022-12-05T05:58:39.688Z,8.30
2022-12-05T06:03:41.799Z,7.57
2022-12-05T06:08:45.002Z,7.87
2022-12-05T06:13:47.320Z,9.55
2022-12-05T06:18:49.450Z,9.15
2022-12-05T06:23:51.445Z,9.55
2022-12-05T06:28:54.155Z,8.03
2022-12-05T06:33:55.869Z,10.35
2022-12-05T06:38:58.807Z,10.10
2022-12-05T06:44:02.412Z,8.35
2022-12-05T06:49:04.574Z,9.50
2022-12-05T06:54:06.348Z,10.30
2022-12-05T06:59:08.172Z,8.25
2022-12-05T07:04:14.403Z,8.90
2022-12-05T07:09:17.203Z,9.53
2022-12-05T07:14:45.957Z,9.18
2022-12-05T07:19:40.803Z,8.80
2022-12-05T07:24:42.928Z,8.95
2022-12-05T07:29:44.687Z,8.17
2022-12-05T07:34:49.608Z,8.55
2022-12-05T07:39:53.922Z,9.63
2022-12-05T07:44:55.734Z,9.65
2022-12-05T07:49:57.737Z,8.40
2022-12-05T07:54:59.817Z,8.63
2022-12-05T08:00:01.623Z,7.25
2022-12-05T08:05:03.499Z,7.00
2022-12-05T08:10:06.198Z,7.20
2022-12-05T08:15:08.815Z,8.45
2022-12-05T08:20:11.021Z,9.18
2022-12-05T08:25:12.732Z,6.68
2022-12-05T08:30:14.551Z,7.67
2022-12-05T08:35:16.370Z,7.53
2022-12-05T08:40:18.090Z,6.88
2022-12-05T08:45:19.852Z,7.60
2022-12-05T08:50:21.610Z,6.18
2022-12-05T08:55:23.332Z,7.32
2022-12-05T09:00:25.051Z,7.00
2022-12-05T09:05:29.207Z,6.63
2022-12-05T09:10:31.574Z,7.18
2022-12-05T09:15:33.336Z,5.90
2022-12-05T09:20:35.100Z,6.78
2022-12-05T09:25:36.854Z,5.05
2022-12-05T09:30:38.589Z,6.00
2022-12-05T09:35:40.490Z,6.22
2022-12-05T09:40:43.210Z,6.40
2022-12-05T09:46:03.750Z,5.38
2022-12-05T09:51:05.706Z,7.10
2022-12-05T09:56:21.129Z,9.70
2022-12-05T10:01:36.809Z,7.60
2022-12-05T10:07:09.494Z,8.77
2022-12-05T10:12:20.095Z,9.27
2022-12-05T10:17:33.937Z,9.48
2022-12-05T10:22:47.005Z,8.38
2022-12-05T10:27:58.066Z,9.10
2022-12-05T10:33:07.813Z,8.38
2022-12-05T10:38:31.684Z,8.10
2022-12-05T10:43:35.845Z,7.40
2022-12-05T10:48:40.410Z,13.00
2022-12-05T10:53:50.261Z,8.65
2022-12-05T10:58:57.679Z,7.45
2022-12-05T11:04:10.487Z,7.10
2022-12-05T11:09:20.413Z,7.87
2022-12-05T11:14:25.207Z,7.15
2022-12-05T11:19:38.236Z,8.02
2022-12-05T11:24:40.139Z,6.95
2022-12-05T11:29:43.655Z,10.70
2022-12-05T11:34:58.923Z,7.93
2022-12-05T11:40:01.838Z,7.03
2022-12-05T11:45:12.851Z,7.80
2022-12-05T11:50:23.483Z,6.43
2022-12-05T11:55:43.496Z,7.03
2022-12-05T12:00:59.801Z,6.60
2022-12-05T12:06:09.121Z,8.90
2022-12-05T12:11:25.590Z,11.57
2022-12-05T12:17:18.532Z,11.05
2022-12-05T12:22:32.614Z,8.53
2022-12-05T12:27:44.843Z,6.90
2022-12-05T12:33:09.586Z,7.43
2022-12-05T12:38:35.958Z,6.72
2022-12-05T12:44:02.304Z,6.97
2022-12-05T12:49:23.037Z,6.63
2022-12-05T12:54:54.752Z,7.60
2022-12-05T13:00:25.211Z,8.15
2022-12-05T13:05:41.939Z,6.78
2022-12-05T13:10:46.221Z,7.72
2022-12-05T13:15:52.655Z,8.60
2022-12-05T13:21:01.810Z,8.85
2022-12-05T13:26:09.539Z,8.48
2022-12-05T13:31:11.834Z,7.15
2022-12-05T13:36:22.185Z,7.68
2022-12-05T13:41:42.986Z,7.88
2022-12-05T13:46:44.829Z,6.65
2022-12-05T13:51:46.883Z,6.83
2022-12-05T13:57:00.227Z,9.80
2022-12-05T14:02:02.205Z,5.63
2022-12-05T14:07:04.199Z,5.78
2022-12-05T14:12:12.048Z,5.57
2022-12-05T14:17:14.028Z,9.45
2022-12-05T14:22:43.373Z,8.20
2022-12-05T14:28:20.394Z,8.63
2022-12-05T14:33:23.615Z,5.53
2022-12-05T14:38:30.907Z,6.88
2022-12-05T14:43:34.498Z,7.30
2022-12-05T14:48:47.362Z,6.80
2022-12-05T14:53:50.188Z,6.43
2022-12-05T14:58:59.806Z,6.18
2022-12-05T15:04:22.591Z,6.60
2022-12-05T15:09:38.349Z,10.67
2022-12-05T15:14:48.433Z,8.68
2022-12-05T15:20:00.829Z,7.75
2022-12-05T15:25:22.844Z,8.23
2022-12-05T15:30:24.753Z,7.78
2022-12-05T15:35:28.740Z,7.68
2022-12-05T15:40:35.810Z,7.85
2022-12-05T15:45:37.581Z,8.57
2022-12-05T15:50:43.059Z,10.68
2022-12-05T15:55:49.916Z,10.32
2022-12-05T16:01:06.703Z,9.48
2022-12-05T16:06:18.177Z,7.70
2022-12-05T16:11:22.238Z,7.70
2022-12-05T16:16:29.295Z,6.85
2022-12-05T16:21:37.964Z,9.48
2022-12-05T16:26:41.012Z,8.63
2022-12-05T16:31:43.995Z,10.23
2022-12-05T16:36:50.512Z,8.90
2022-12-05T16:41:52.766Z,10.05
2022-12-05T16:46:55.862Z,11.15
2022-12-05T16:52:10.020Z,13.43
2022-12-05T16:57:14.809Z,14.50
2022-12-05T17:02:18.556Z,12.20
2022-12-05T17:07:20.397Z,11.43
2022-12-05T17:12:24.889Z,16.35
2022-12-05T17:17:27.111Z,18.00
2022-12-05T17:22:28.820Z,15.10
2022-12-05T17:27:30.617Z,16.33
2022-12-05T17:32:32.364Z,17.33
2022-12-05T17:37:34.349Z,14.57
2022-12-05T17:42:36.042Z,13.80
2022-12-05T17:47:37.952Z,18.15
2022-12-05T17:52:39.666Z,16.20
2022-12-05T17:57:41.445Z,16.83
2022-12-05T18:02:44.955Z,16.25
2022-12-05T18:07:47.753Z,16.40
2022-12-05T18:12:50.142Z,13.05
2022-12-05T18:17:52.123Z,15.88
2022-12-05T18:22:53.863Z,17.60
2022-12-05T18:27:55.645Z,18.38
2022-12-05T18:32:57.338Z,16.73
2022-12-05T18:37:59.042Z,20.10
2022-12-05T18:43:00.776Z,17.50
2022-12-05T18:48:23.327Z,16.55
2022-12-05T18:53:24.261Z,15.37
2022-12-05T18:58:25.955Z,14.30
2022-12-05T19:03:27.627Z,16.67
2022-12-05T19:08:29.487Z,12.77
2022-12-05T19:13:31.249Z,12.82
2022-12-05T19:18:33.038Z,15.05
2022-12-05T19:23:35.687Z,13.37
2022-12-05T19:28:37.949Z,13.43
2022-12-05T19:33:41.890Z,14.00
2022-12-05T19:38:45.046Z,15.90
2022-12-05T19:43:46.978Z,14.82
2022-12-05T19:48:48.838Z,13.27
2022-12-05T19:53:50.943Z,14.85
2022-12-05T19:58:53.543Z,16.17
2022-12-05T20:03:58.485Z,13.47
2022-12-05T20:09:00.685Z,13.20
2022-12-05T20:14:02.472Z,12.95
2022-12-05T20:19:05.227Z,13.55
2022-12-05T20:24:07.699Z,12.57
2022-12-05T20:29:10.345Z,11.90
2022-12-05T20:34:13.899Z,16.03
2022-12-05T20:39:17.486Z,14.80
2022-12-05T20:44:19.365Z,17.33
2022-12-05T20:49:21.980Z,15.67
2022-12-05T20:54:23.795Z,17.80
2022-12-05T20:59:25.677Z,16.17
2022-12-05T21:04:27.380Z,15.03
2022-12-05T21:09:29.084Z,16.30
2022-12-05T21:14:30.763Z,14.93
2022-12-05T21:19:32.634Z,15.07
2022-12-05T21:24:34.403Z,14.52
2022-12-05T21:29:36.160Z,13.75
2022-12-05T21:34:38.715Z,13.67
2022-12-05T21:39:40.435Z,13.87
2022-12-05T21:44:42.223Z,15.68
2022-12-05T21:49:43.938Z,13.65
2022-12-05T21:54:45.680Z,18.63
2022-12-05T21:59:47.373Z,15.60
2022-12-05T22:04:49.105Z,15.90
2022-12-05T22:09:50.862Z,16.33
2022-12-05T22:14:52.749Z,16.33
2022-12-05T22:19:54.538Z,13.73
2022-12-05T22:24:56.488Z,12.82
2022-12-05T22:29:58.522Z,13.13
2022-12-05T22:35:03.729Z,12.40
2022-12-05T22:40:06.815Z,11.00
2022-12-05T22:45:08.999Z,13.37
2022-12-05T22:50:11.106Z,10.55
2022-12-05T22:55:14.375Z,12.65
2022-12-05T23:00:16.276Z,11.70
2022-12-05T23:05:18.118Z,15.85
2022-12-05T23:10:21.905Z,13.83
2022-12-05T23:15:25.179Z,14.80
2022-12-05T23:20:29.190Z,17.13
2022-12-05T23:25:36.601Z,13.43
2022-12-05T23:30:38.770Z,11.50
2022-12-05T23:35:42.283Z,14.63
2022-12-05T23:40:44.473Z,17.70
2022-12-05T23:45:47.742Z,9.80
2022-12-05T23:51:09.306Z,15.05
2022-12-05T23:56:19.711Z,12.00
